LQSA/SJJ METAR and TAF weather

Enter ICAO airport designator
Station Type Date Time Source
LQSA METAR 2022/11/26 08:30 UTC NOAA

LQSA 260830Z 19003KT 150V230 3000 BR OVC004 01/01 Q1026 NOSIG


Station Type Date Time Source
LQSA Decoded METAR 2022/11/26 08:30 UTC NOAA

Sarajevo, Bosnia and Herzegovina (LQSA) 43-49N 018-20E 510M
Nov 26, 2022 - 03:30 AM EST / 2022.11.26 0830 UTC
Wind: from the S (190 degrees) at 3 MPH (3 KT) (direction variable):0
Visibility: 1 mile(s):0
Sky conditions: overcast
Weather: mist
Temperature: 33 F (1 C)
Dew Point: 33 F (1 C)
Relative Humidity: 100%
Pressure (altimeter): 30.30 in. Hg (1026 hPa)
ob: LQSA 260830Z 19003KT 150V230 3000 BR OVC004 01/01 Q1026 NOSIG
cycle: 8

Station Type Date Time Source
LQSA TAF 2022/11/26 06:08 UTC NOAA

TAF LQSA 260500Z 2606/2706 32005KT 9999 SCT060 TX06/2613Z TNM01/2706Z
TEMPO 2606/2610 2000 BR BKN003 PROB40
TEMPO 2622/2706 3000 SNRA BKN006 OVC027

Example: see airport list